Terminal Aerodrome Forecast
Issued by NWS Springfield, MO

Home | Current Version | Previous Version | Text Only | Print | Product List | Glossary On
Versions: 1 2 3 4 5 6 7 8 9 10 11 12 13
916
FTUS43 KSGF 100529
TAFSGF
TAF
KSGF 100529Z 1006/1106 16006KT P6SM OVC050
     FM101500 16011G18KT P6SM BKN060
     FM110000 15013KT P6SM BKN060=

USA.gov is the U.S. government's official web portal to all federal, state and local government web resources and services.